createdAt,value
2023-01-31T00:00:11.202Z,91.34
2023-01-31T00:04:00.902Z,91.40
2023-01-31T00:07:28.352Z,90.99
2023-01-31T00:10:55.651Z,90.70
2023-01-31T00:14:25.145Z,90.14
2023-01-31T00:17:52.208Z,89.68
2023-01-31T00:21:21.296Z,88.59
2023-01-31T00:24:48.381Z,88.54
2023-01-31T00:28:24.609Z,88.97
2023-01-31T00:31:52.145Z,88.95
2023-01-31T00:35:19.558Z,88.82
2023-01-31T00:38:49.255Z,88.91
2023-01-31T00:42:23.994Z,88.84
2023-01-31T00:45:51.115Z,88.50
2023-01-31T00:49:18.296Z,88.42
2023-01-31T00:52:45.381Z,88.41
2023-01-31T00:56:14.879Z,88.12
2023-01-31T00:59:42.431Z,87.61
2023-01-31T01:03:12.391Z,87.76
2023-01-31T01:06:43.353Z,87.31
2023-01-31T01:10:14.747Z,87.07
2023-01-31T01:13:45.337Z,87.37
2023-01-31T01:17:15.369Z,87.18
2023-01-31T01:20:45.492Z,87.01
2023-01-31T01:24:16.190Z,87.66
2023-01-31T01:27:43.281Z,87.00
2023-01-31T01:31:19.147Z,87.16
2023-01-31T01:34:46.469Z,86.54
2023-01-31T01:38:14.376Z,86.77
2023-01-31T01:41:42.238Z,86.62
2023-01-31T01:45:18.229Z,86.27
2023-01-31T01:48:53.182Z,86.45
2023-01-31T01:52:21.236Z,86.61
2023-01-31T01:55:55.026Z,86.35
2023-01-31T01:59:27.787Z,86.24
2023-01-31T02:02:59.684Z,85.92
2023-01-31T02:06:27.197Z,86.10
2023-01-31T02:10:01.939Z,85.26
2023-01-31T02:13:31.042Z,85.16
2023-01-31T02:16:59.095Z,85.68
2023-01-31T02:21:06.787Z,84.98
2023-01-31T02:25:15.888Z,85.07
2023-01-31T02:29:18.474Z,84.58
2023-01-31T02:33:08.549Z,84.96
2023-01-31T02:36:48.549Z,85.13
2023-01-31T02:40:24.172Z,85.08
2023-01-31T02:44:17.961Z,85.25
2023-01-31T02:47:58.182Z,85.17
2023-01-31T02:51:33.061Z,84.84
2023-01-31T02:55:33.722Z,84.85
2023-01-31T02:59:04.072Z,85.07
2023-01-31T03:02:31.746Z,84.95
2023-01-31T03:06:27.266Z,84.82
2023-01-31T03:10:04.002Z,84.94
2023-01-31T03:13:47.949Z,84.77
2023-01-31T03:17:33.700Z,84.80
2023-01-31T03:21:08.707Z,84.93
2023-01-31T03:24:36.978Z,84.43
2023-01-31T03:28:09.347Z,84.34
2023-01-31T03:31:40.987Z,84.51
2023-01-31T03:35:10.740Z,84.24
2023-01-31T03:38:50.041Z,84.67
2023-01-31T03:42:24.796Z,84.58
2023-01-31T03:45:58.682Z,84.74
2023-01-31T03:49:29.411Z,84.53
2023-01-31T03:53:01.234Z,84.83
2023-01-31T03:56:34.275Z,84.19
2023-01-31T04:00:05.352Z,84.22
2023-01-31T04:03:45.344Z,84.16
2023-01-31T04:07:13.447Z,84.08
2023-01-31T04:10:41.199Z,83.24
2023-01-31T04:14:08.993Z,83.50
2023-01-31T04:17:36.137Z,83.61
2023-01-31T04:21:03.481Z,83.03
2023-01-31T04:24:30.680Z,82.97
2023-01-31T04:28:01.025Z,82.95
2023-01-31T04:31:28.590Z,82.54
2023-01-31T04:34:55.723Z,82.56
2023-01-31T04:38:30.421Z,82.56
2023-01-31T04:41:57.437Z,82.31
2023-01-31T04:45:24.440Z,82.60
2023-01-31T04:48:51.675Z,82.36
2023-01-31T04:52:18.787Z,81.74
2023-01-31T04:55:46.152Z,82.01
2023-01-31T04:59:13.217Z,81.66
2023-01-31T05:02:40.651Z,81.57
2023-01-31T05:06:08.604Z,81.69
2023-01-31T05:09:44.112Z,81.55
2023-01-31T05:13:14.804Z,81.70
2023-01-31T05:16:44.163Z,82.22
2023-01-31T05:20:14.626Z,82.00
2023-01-31T05:23:41.640Z,82.26
2023-01-31T05:27:10.736Z,82.57
2023-01-31T05:30:38.892Z,82.35
2023-01-31T05:34:06.396Z,82.43
2023-01-31T05:37:33.418Z,82.16
2023-01-31T05:41:00.455Z,82.21
2023-01-31T05:44:27.776Z,82.71
2023-01-31T05:47:55.010Z,82.61
2023-01-31T05:51:22.204Z,82.73
2023-01-31T05:54:49.402Z,82.89
2023-01-31T05:58:16.886Z,83.16
2023-01-31T06:01:43.955Z,83.32
2023-01-31T06:05:12.026Z,83.65
2023-01-31T06:08:39.188Z,83.85
2023-01-31T06:12:06.790Z,83.94
2023-01-31T06:15:34.564Z,84.26
2023-01-31T06:19:01.991Z,84.40
2023-01-31T06:22:29.289Z,84.56
2023-01-31T06:25:57.282Z,84.54
2023-01-31T06:29:33.951Z,84.62
2023-01-31T06:33:02.397Z,84.88
2023-01-31T06:36:29.853Z,84.77
2023-01-31T06:39:57.080Z,84.79
2023-01-31T06:43:24.522Z,84.64
2023-01-31T06:46:54.835Z,84.84
2023-01-31T06:50:27.984Z,84.83
2023-01-31T06:53:56.707Z,84.49
2023-01-31T06:57:24.143Z,84.68
2023-01-31T07:00:51.412Z,84.36
2023-01-31T07:04:18.746Z,84.62
2023-01-31T07:07:46.057Z,84.39
2023-01-31T07:11:13.180Z,84.45
2023-01-31T07:14:40.269Z,84.13
2023-01-31T07:18:07.745Z,84.10
2023-01-31T07:21:36.625Z,84.27
2023-01-31T07:25:04.136Z,83.95
2023-01-31T07:28:31.346Z,84.15
2023-01-31T07:31:58.783Z,83.97
2023-01-31T07:35:26.456Z,83.93
2023-01-31T07:39:00.011Z,83.93
2023-01-31T07:42:36.676Z,84.05
2023-01-31T07:46:04.286Z,83.88
2023-01-31T07:49:31.663Z,83.74
2023-01-31T07:53:00.336Z,83.78
2023-01-31T07:56:27.455Z,83.35
2023-01-31T07:59:54.556Z,83.60
2023-01-31T08:03:34.055Z,83.06
2023-01-31T08:07:03.259Z,83.07
2023-01-31T08:10:30.743Z,83.12
2023-01-31T08:13:58.105Z,83.06
2023-01-31T08:17:28.577Z,83.07
2023-01-31T08:20:59.549Z,83.44
2023-01-31T08:24:26.765Z,82.82
2023-01-31T08:27:53.925Z,82.54
2023-01-31T08:31:27.586Z,82.54
2023-01-31T08:34:54.838Z,82.01
2023-01-31T08:38:22.057Z,82.01
2023-01-31T08:42:00.402Z,81.98
2023-01-31T08:45:31.468Z,81.77
2023-01-31T08:48:58.842Z,82.16
2023-01-31T08:52:26.105Z,82.21
2023-01-31T08:56:03.004Z,82.21
2023-01-31T08:59:30.469Z,81.67
2023-01-31T09:02:59.414Z,81.55
2023-01-31T09:06:27.612Z,81.57
2023-01-31T09:09:55.020Z,81.24
2023-01-31T09:13:22.404Z,80.88
2023-01-31T09:16:49.671Z,80.72
2023-01-31T09:20:17.081Z,80.13
2023-01-31T09:23:47.721Z,80.98
2023-01-31T09:27:17.653Z,80.37
2023-01-31T09:30:44.839Z,80.19
2023-01-31T09:34:19.810Z,79.75
2023-01-31T09:37:47.050Z,79.27
2023-01-31T09:41:21.704Z,79.03
2023-01-31T09:45:09.172Z,79.18
2023-01-31T09:48:41.663Z,79.85
2023-01-31T09:52:12.162Z,78.81
2023-01-31T09:55:48.228Z,78.94
2023-01-31T09:59:23.710Z,78.35
2023-01-31T10:03:27.566Z,77.82
2023-01-31T10:07:02.883Z,77.13
2023-01-31T10:10:37.066Z,76.86
2023-01-31T10:14:25.319Z,77.22
2023-01-31T10:18:02.293Z,78.20
2023-01-31T10:21:37.479Z,78.56
2023-01-31T10:25:20.018Z,78.83
2023-01-31T10:28:56.349Z,78.63
2023-01-31T10:32:30.244Z,78.38
2023-01-31T10:36:03.531Z,78.75
2023-01-31T10:39:35.276Z,78.09
2023-01-31T10:43:11.440Z,77.20
2023-01-31T10:46:38.526Z,77.10
2023-01-31T10:50:16.961Z,77.34
2023-01-31T10:54:29.566Z,77.63
2023-01-31T10:57:58.300Z,76.74
2023-01-31T11:01:30.143Z,76.69
2023-01-31T11:04:59.059Z,77.06
2023-01-31T11:08:35.155Z,77.05
2023-01-31T11:12:05.292Z,77.35
2023-01-31T11:15:39.168Z,77.99
2023-01-31T11:19:20.853Z,78.33
2023-01-31T11:22:58.931Z,78.38
2023-01-31T11:26:32.604Z,78.34
2023-01-31T11:30:00.766Z,78.66
2023-01-31T11:33:56.872Z,79.05
2023-01-31T11:37:32.093Z,78.53
2023-01-31T11:41:01.196Z,79.09
2023-01-31T11:44:31.427Z,79.43
2023-01-31T11:48:01.028Z,79.33
2023-01-31T11:51:30.947Z,79.77
2023-01-31T11:55:01.602Z,79.70
2023-01-31T11:58:35.581Z,79.87
2023-01-31T12:02:04.063Z,79.65
2023-01-31T12:05:40.615Z,79.88
2023-01-31T12:09:22.364Z,80.00
2023-01-31T12:12:54.459Z,80.45
2023-01-31T12:16:24.031Z,80.27
2023-01-31T12:20:02.282Z,80.65
2023-01-31T12:23:41.191Z,80.90
2023-01-31T12:27:21.503Z,81.78
2023-01-31T12:31:04.520Z,82.10
2023-01-31T12:35:01.697Z,82.60
2023-01-31T12:39:00.719Z,83.35
2023-01-31T12:42:46.841Z,83.95
2023-01-31T12:46:24.610Z,83.99
2023-01-31T12:50:23.122Z,84.74
2023-01-31T12:54:06.067Z,85.16
2023-01-31T12:57:46.443Z,85.46
2023-01-31T13:01:18.455Z,86.02
2023-01-31T13:04:51.255Z,86.31
2023-01-31T13:08:22.625Z,86.70
2023-01-31T13:11:56.173Z,87.30
2023-01-31T13:15:32.151Z,87.72
2023-01-31T13:19:02.391Z,87.65
2023-01-31T13:22:46.203Z,87.88
2023-01-31T13:26:20.000Z,88.25
2023-01-31T13:29:53.482Z,88.42
2023-01-31T13:33:30.365Z,88.72
2023-01-31T13:37:02.530Z,88.65
2023-01-31T13:40:32.747Z,89.03
2023-01-31T13:44:02.564Z,89.18
2023-01-31T13:47:41.753Z,89.44
2023-01-31T13:51:18.005Z,89.34
2023-01-31T13:54:50.118Z,89.78
2023-01-31T13:58:20.954Z,89.83
2023-01-31T14:02:02.663Z,90.27
2023-01-31T14:06:00.801Z,90.37
2023-01-31T14:09:30.553Z,90.46
2023-01-31T14:13:38.911Z,90.71
2023-01-31T14:17:13.435Z,90.77
2023-01-31T14:20:40.491Z,90.82
2023-01-31T14:24:19.249Z,91.14
2023-01-31T14:28:02.309Z,90.83
2023-01-31T14:31:37.441Z,90.91
2023-01-31T14:35:19.049Z,90.69
2023-01-31T14:39:04.687Z,90.91
2023-01-31T14:42:54.742Z,91.21
2023-01-31T14:47:16.063Z,91.39
2023-01-31T14:50:58.807Z,91.26
2023-01-31T14:54:53.299Z,91.90
2023-01-31T14:58:25.337Z,91.72
2023-01-31T15:01:52.591Z,92.07
2023-01-31T15:05:23.982Z,91.93
2023-01-31T15:09:15.599Z,91.98
2023-01-31T15:13:00.923Z,92.39
2023-01-31T15:16:30.991Z,92.50
2023-01-31T15:20:05.867Z,92.81
2023-01-31T15:23:36.881Z,93.35
2023-01-31T15:27:09.716Z,93.48
2023-01-31T15:30:41.213Z,93.65
2023-01-31T15:34:17.321Z,93.77
2023-01-31T15:37:45.709Z,93.62
2023-01-31T15:41:22.698Z,93.62
2023-01-31T15:44:50.001Z,93.64
2023-01-31T15:48:22.751Z,93.70
2023-01-31T15:52:05.514Z,93.67
2023-01-31T15:55:33.860Z,93.57
2023-01-31T15:59:15.387Z,93.82
2023-01-31T16:02:42.727Z,93.90
2023-01-31T16:06:26.141Z,93.83
2023-01-31T16:09:53.680Z,93.81
2023-01-31T16:13:22.128Z,94.15
2023-01-31T16:16:51.147Z,94.09
2023-01-31T16:20:40.666Z,93.99
2023-01-31T16:24:15.770Z,93.98
2023-01-31T16:27:45.377Z,93.97
2023-01-31T16:31:15.768Z,94.01
2023-01-31T16:34:43.507Z,93.96
2023-01-31T16:38:21.782Z,94.31
2023-01-31T16:41:57.324Z,94.42
2023-01-31T16:45:34.395Z,94.80
2023-01-31T16:49:18.926Z,95.13
2023-01-31T16:52:47.660Z,95.00
2023-01-31T16:56:24.919Z,95.04
2023-01-31T16:59:54.088Z,95.40
2023-01-31T17:03:21.827Z,95.44
2023-01-31T17:06:53.332Z,95.81
2023-01-31T17:10:27.127Z,95.61
2023-01-31T17:13:56.024Z,96.37
2023-01-31T17:17:23.130Z,97.04
2023-01-31T17:20:51.193Z,97.00
2023-01-31T17:24:23.739Z,97.49
2023-01-31T17:27:51.509Z,97.63
2023-01-31T17:31:21.816Z,97.54
2023-01-31T17:34:49.688Z,98.25
2023-01-31T17:38:16.750Z,98.75
2023-01-31T17:41:46.890Z,99.25
2023-01-31T17:45:18.876Z,99.71
2023-01-31T17:48:46.375Z,100.00
2023-01-31T17:52:13.779Z,99.93
2023-01-31T17:55:41.118Z,99.98
2023-01-31T17:59:12.303Z,100.00
2023-01-31T18:02:43.890Z,100.00
2023-01-31T18:06:12.391Z,100.00
2023-01-31T18:09:39.733Z,100.00
2023-01-31T18:13:06.853Z,100.00
2023-01-31T18:16:34.126Z,100.00
2023-01-31T18:20:01.213Z,100.00
2023-01-31T18:23:28.705Z,100.00
2023-01-31T18:26:57.169Z,100.00
2023-01-31T18:30:25.453Z,100.00
2023-01-31T18:33:53.124Z,100.00
2023-01-31T18:37:22.214Z,100.00
2023-01-31T18:40:50.087Z,100.00
2023-01-31T18:44:17.797Z,100.00
2023-01-31T18:47:45.651Z,100.00
2023-01-31T18:51:15.089Z,100.00
2023-01-31T18:54:42.757Z,100.00
2023-01-31T18:58:10.176Z,100.00
2023-01-31T19:01:41.546Z,100.00
2023-01-31T19:05:23.654Z,100.00
2023-01-31T19:08:52.675Z,100.00
2023-01-31T19:12:20.037Z,100.00
2023-01-31T19:15:47.193Z,100.00
2023-01-31T19:19:15.171Z,100.00
2023-01-31T19:22:42.831Z,100.00
2023-01-31T19:26:10.945Z,100.00
2023-01-31T19:29:39.888Z,100.00
2023-01-31T19:33:07.884Z,100.00
2023-01-31T19:36:37.687Z,100.00
2023-01-31T19:40:06.144Z,100.00
2023-01-31T19:43:33.863Z,100.00
2023-01-31T19:47:01.907Z,100.00
2023-01-31T19:50:30.513Z,100.00
2023-01-31T19:54:01.301Z,100.00
2023-01-31T19:57:30.541Z,100.00
2023-01-31T20:00:59.923Z,100.00
2023-01-31T20:04:30.890Z,100.00
2023-01-31T20:07:59.322Z,100.00
2023-01-31T20:11:29.149Z,100.00
2023-01-31T20:14:57.690Z,100.00
2023-01-31T20:18:26.646Z,100.00
2023-01-31T20:21:55.351Z,100.00
2023-01-31T20:25:24.738Z,100.00
2023-01-31T20:28:53.915Z,100.00
2023-01-31T20:32:23.033Z,100.00
2023-01-31T20:35:52.069Z,100.00
2023-01-31T20:39:20.589Z,100.00
2023-01-31T20:42:49.011Z,100.00
2023-01-31T20:46:21.281Z,100.00
2023-01-31T20:49:52.676Z,100.00
2023-01-31T20:53:22.738Z,100.00
2023-01-31T20:56:51.997Z,99.85
2023-01-31T21:00:22.086Z,99.33
2023-01-31T21:03:49.831Z,99.65
2023-01-31T21:07:17.259Z,99.89
2023-01-31T21:10:49.293Z,100.00
2023-01-31T21:14:16.937Z,100.00
2023-01-31T21:17:44.817Z,100.00
2023-01-31T21:21:15.133Z,100.00
2023-01-31T21:24:43.314Z,100.00
2023-01-31T21:28:11.948Z,97.96
2023-01-31T21:31:40.279Z,97.02
2023-01-31T21:35:09.096Z,97.08
2023-01-31T21:38:36.647Z,97.06
2023-01-31T21:42:16.856Z,97.22
2023-01-31T21:45:44.192Z,97.48
2023-01-31T21:49:11.205Z,97.48
2023-01-31T21:52:38.424Z,97.41
2023-01-31T21:56:07.468Z,97.64
2023-01-31T21:59:34.513Z,97.78
2023-01-31T22:03:02.101Z,98.11
2023-01-31T22:06:35.002Z,98.42
2023-01-31T22:10:02.403Z,98.62
2023-01-31T22:13:30.165Z,98.88
2023-01-31T22:16:57.158Z,98.90
2023-01-31T22:20:24.400Z,98.42
2023-01-31T22:23:54.156Z,98.43
2023-01-31T22:27:21.430Z,98.14
2023-01-31T22:30:57.185Z,98.08
2023-01-31T22:34:24.369Z,98.07
2023-01-31T22:37:51.831Z,97.96
2023-01-31T22:41:20.238Z,98.26
2023-01-31T22:44:47.575Z,98.45
2023-01-31T22:48:15.392Z,98.67
2023-01-31T22:51:42.472Z,98.92
2023-01-31T22:55:10.694Z,98.79
2023-01-31T22:58:37.713Z,98.68
2023-01-31T23:02:05.131Z,98.48
2023-01-31T23:05:32.373Z,98.60
2023-01-31T23:08:59.821Z,99.19
2023-01-31T23:12:26.809Z,99.12
2023-01-31T23:15:54.770Z,99.31
2023-01-31T23:19:21.806Z,99.67
2023-01-31T23:22:51.932Z,99.95
2023-01-31T23:26:19.060Z,99.94
2023-01-31T23:29:46.163Z,100.00
2023-01-31T23:33:13.187Z,100.00
2023-01-31T23:36:49.243Z,100.00
2023-01-31T23:40:16.623Z,100.00
2023-01-31T23:43:43.887Z,100.00
2023-01-31T23:47:11.057Z,99.99
2023-01-31T23:50:39.689Z,99.87
2023-01-31T23:54:06.934Z,99.76
2023-01-31T23:57:33.836Z,99.56
